Time;durP1;ratioP1;P1;durP2;ratioP2;P2;SDS_P1;SDS_P2;PMS_P1;PMS_P2;Temp;Humidity;BMP_temperature;BMP_pressure;BME280_temperature;BME280_humidity;BME280_pressure;Samples;Min_cycle;Max_cycle;Signal;HPM_P1;HPM_P2
2022/06/27 00:00:59;;;;;;;5.78;3.42;;;;;;;;;;5031406;28;20479;-58
2022/06/27 00:03:25;;;;;;;5.72;3.80;;;;;;;;;;5029083;28;20095;-58
2022/06/27 00:05:51;;;;;;;6.28;3.45;;;;;;;;;;5031306;28;20131;-58
2022/06/27 00:08:17;;;;;;;6.55;3.70;;;;;;;;;;5030569;28;20128;-58
2022/06/27 00:10:43;;;;;;;4.53;2.97;;;;;;;;;;5028653;28;20041;-58
2022/06/27 00:13:10;;;;;;;5.78;2.80;;;;;;;;;;5033029;28;20060;-59
2022/06/27 00:15:36;;;;;;;5.13;2.78;;;;;;;;;;5029239;28;20057;-58
2022/06/27 00:18:02;;;;;;;4.47;2.97;;;;;;;;;;5013094;28;20576;-58
2022/06/27 00:20:28;;;;;;;7.05;2.92;;;;;;;;;;5029154;28;20111;-58
2022/06/27 00:22:54;;;;;;;4.28;2.92;;;;;;;;;;5029699;28;20041;-57
2022/06/27 00:25:20;;;;;;;6.10;3.17;;;;;;;;;;5033531;28;20141;-57
2022/06/27 00:27:47;;;;;;;6.22;3.08;;;;;;;;;;5031415;28;20038;-57
2022/06/27 00:30:13;;;;;;;5.85;3.17;;;;;;;;;;5011120;28;20466;-58
2022/06/27 00:32:39;;;;;;;4.70;3.33;;;;;;;;;;5028963;28;20033;-57
2022/06/27 00:35:06;;;;;;;5.20;3.30;;;;;;;;;;5028243;28;20049;-57
2022/06/27 00:37:32;;;;;;;6.00;3.05;;;;;;;;;;5031878;28;20037;-57
2022/06/27 00:39:58;;;;;;;4.35;3.35;;;;;;;;;;5027619;28;20298;-57
2022/06/27 00:42:24;;;;;;;5.00;3.03;;;;;;;;;;5030647;28;20042;-58
2022/06/27 00:44:50;;;;;;;8.05;3.80;;;;;;;;;;5029920;28;20041;-57
2022/06/27 00:47:17;;;;;;;8.25;3.55;;;;;;;;;;5031144;28;20094;-57
2022/06/27 00:49:43;;;;;;;8.48;3.78;;;;;;;;;;5030813;28;20068;-58
2022/06/27 00:52:11;;;;;;;8.93;3.67;;;;;;;;;;5027051;28;20068;-58
2022/06/27 00:54:37;;;;;;;6.95;3.95;;;;;;;;;;5014826;28;20051;-57
2022/06/27 00:57:04;;;;;;;7.82;3.75;;;;;;;;;;5027917;28;20045;-57
2022/06/27 00:59:30;;;;;;;8.07;4.10;;;;;;;;;;5030391;28;20135;-58
2022/06/27 01:01:56;;;;;;;6.70;3.90;;;;;;;;;;5029593;28;20526;-57
2022/06/27 01:04:23;;;;;;;7.97;3.97;;;;;;;;;;5031882;23;20140;-58
2022/06/27 01:06:51;;;;;;;7.20;4.20;;;;;;;;;;5030764;28;20045;-58
2022/06/27 01:09:19;;;;;;;5.90;3.63;;;;;;;;;;5013900;28;20495;-58
2022/06/27 01:11:45;;;;;;;6.28;4.40;;;;;;;;;;5032584;28;20119;-58
2022/06/27 01:14:13;;;;;;;6.78;3.78;;;;;;;;;;5029906;28;20037;-58
2022/06/27 01:16:40;;;;;;;7.93;4.10;;;;;;;;;;5029307;28;20037;-57
2022/06/27 01:19:09;;;;;;;6.00;4.28;;;;;;;;;;5031319;28;20047;-57
2022/06/27 01:21:39;;;;;;;7.60;4.03;;;;;;;;;;5029395;28;20124;-57
2022/06/27 01:24:06;;;;;;;4.53;3.55;;;;;;;;;;5027478;28;20042;-58
2022/06/27 01:26:32;;;;;;;6.20;4.22;;;;;;;;;;5029952;28;20073;-57
2022/06/27 01:28:58;;;;;;;5.38;4.22;;;;;;;;;;5029704;28;20042;-57
2022/06/27 01:31:24;;;;;;;8.57;4.40;;;;;;;;;;5030563;28;20037;-58
2022/06/27 01:33:51;;;;;;;6.53;4.68;;;;;;;;;;5029294;28;20042;-57
2022/06/27 01:39:02;;;;;;;6.18;3.80;;;;;;;;;;5029009;28;20773;-57
2022/06/27 01:41:28;;;;;;;9.45;4.70;;;;;;;;;;5028115;28;20100;-58
2022/06/27 01:43:55;;;;;;;6.75;4.60;;;;;;;;;;5029428;28;20538;-57
2022/06/27 01:46:21;;;;;;;5.25;3.90;;;;;;;;;;5028984;28;20045;-57
2022/06/27 01:48:47;;;;;;;7.65;4.53;;;;;;;;;;5030201;28;20045;-58
2022/06/27 01:51:13;;;;;;;6.55;4.68;;;;;;;;;;5029387;28;20049;-58
2022/06/27 01:53:39;;;;;;;7.45;4.93;;;;;;;;;;5025964;28;20033;-58
2022/06/27 01:56:06;;;;;;;7.70;4.38;;;;;;;;;;5011874;28;20482;-57
2022/06/27 01:58:32;;;;;;;6.70;5.07;;;;;;;;;;5027408;28;20037;-57
2022/06/27 02:00:58;;;;;;;7.30;4.80;;;;;;;;;;5025902;28;20077;-57
2022/06/27 02:03:25;;;;;;;16.33;5.80;;;;;;;;;;5029388;28;20045;-57
2022/06/27 02:05:52;;;;;;;7.82;5.28;;;;;;;;;;5025986;28;20052;-58
2022/06/27 02:08:21;;;;;;;8.93;4.60;;;;;;;;;;5029713;28;20037;-58
2022/06/27 02:10:46;;;;;;;;;;;;;;;;;;5026865;28;20072;-57
2022/06/27 02:13:13;;;;;;;7.57;5.18;;;;;;;;;;5029196;28;20003;-58
2022/06/27 02:15:58;;;;;;;9.88;4.95;;;;;;;;;;5026790;28;20081;-57
2022/06/27 02:18:25;;;;;;;8.95;4.95;;;;;;;;;;5029572;28;20037;-58
2022/06/27 02:20:51;;;;;;;7.70;5.25;;;;;;;;;;5026659;28;20037;-58
2022/06/27 02:23:17;;;;;;;10.18;5.78;;;;;;;;;;5028567;28;20120;-57
2022/06/27 02:25:45;;;;;;;7.63;5.70;;;;;;;;;;5028984;28;20125;-57
2022/06/27 02:28:12;;;;;;;8.23;5.55;;;;;;;;;;5003919;28;20049;-58
2022/06/27 02:30:39;;;;;;;11.18;4.97;;;;;;;;;;5030307;28;20517;-57
2022/06/27 02:33:05;;;;;;;10.48;4.75;;;;;;;;;;5026212;28;20041;-58
2022/06/27 02:35:32;;;;;;;11.10;5.13;;;;;;;;;;5031166;28;20068;-57
2022/06/27 02:37:59;;;;;;;9.07;5.00;;;;;;;;;;5026202;28;20048;-57
2022/06/27 02:40:29;;;;;;;7.38;4.95;;;;;;;;;;5025648;28;20046;-58
2022/06/27 02:42:58;;;;;;;10.43;5.93;;;;;;;;;;5028562;28;20047;-58
2022/06/27 02:45:26;;;;;;;8.73;5.50;;;;;;;;;;5025585;28;20041;-57
2022/06/27 02:47:54;;;;;;;9.45;5.13;;;;;;;;;;5031227;28;20592;-58
2022/06/27 02:50:21;;;;;;;8.45;5.38;;;;;;;;;;5026344;28;20049;-58
2022/06/27 02:52:50;;;;;;;8.13;5.40;;;;;;;;;;5013555;28;20036;-57
2022/06/27 02:55:17;;;;;;;8.60;5.53;;;;;;;;;;5026400;28;20485;-58
2022/06/27 02:57:45;;;;;;;10.20;5.95;;;;;;;;;;5028214;28;20120;-58
2022/06/27 03:00:12;;;;;;;12.88;6.65;;;;;;;;;;5024725;28;20045;-58
2022/06/27 03:02:38;;;;;;;11.68;6.80;;;;;;;;;;5027634;28;20069;-58
2022/06/27 03:05:05;;;;;;;11.30;6.55;;;;;;;;;;5029684;28;20072;-57
2022/06/27 03:07:36;;;;;;;7.82;6.60;;;;;;;;;;5025547;28;20046;-57
2022/06/27 03:10:03;;;;;;;9.35;7.00;;;;;;;;;;5024411;28;20041;-57
2022/06/27 03:12:29;;;;;;;11.93;7.15;;;;;;;;;;5029020;28;20087;-57
2022/06/27 03:14:55;;;;;;;12.82;6.72;;;;;;;;;;5007609;28;20064;-57
2022/06/27 03:17:21;;;;;;;11.43;6.97;;;;;;;;;;5006270;28;20052;-58
2022/06/27 03:19:50;;;;;;;11.50;7.72;;;;;;;;;;5026455;28;20041;-57
2022/06/27 03:22:16;;;;;;;11.32;7.28;;;;;;;;;;5028054;28;20041;-57
2022/06/27 03:24:43;;;;;;;13.90;7.63;;;;;;;;;;5027060;28;20479;-58
2022/06/27 03:27:10;;;;;;;13.07;7.35;;;;;;;;;;5027050;28;20041;-58
2022/06/27 03:29:37;;;;;;;14.00;7.45;;;;;;;;;;5028250;28;20041;-57
2022/06/27 03:32:03;;;;;;;9.88;7.60;;;;;;;;;;5012114;28;20045;-57
2022/06/27 03:34:30;;;;;;;11.65;7.85;;;;;;;;;;5032682;28;20525;-57
2022/06/27 03:36:56;;;;;;;12.32;7.45;;;;;;;;;;5030954;28;20046;-57
2022/06/27 03:39:23;;;;;;;11.30;6.90;;;;;;;;;;5027193;28;20056;-58
2022/06/27 03:41:49;;;;;;;11.95;8.65;;;;;;;;;;5031964;28;20096;-57
2022/06/27 03:44:15;;;;;;;12.20;8.13;;;;;;;;;;5029880;28;20045;-57
2022/06/27 03:46:41;;;;;;;13.02;7.75;;;;;;;;;;5032616;28;20064;-58
2022/06/27 03:51:53;;;;;;;10.82;7.85;;;;;;;;;;5027957;28;20045;-57
2022/06/27 03:54:19;;;;;;;10.93;8.05;;;;;;;;;;5016341;28;20538;-57
2022/06/27 03:56:45;;;;;;;13.63;8.43;;;;;;;;;;5029658;28;20510;-57
2022/06/27 03:59:12;;;;;;;14.68;8.93;;;;;;;;;;5029011;28;20490;-58
2022/06/27 04:01:38;;;;;;;14.25;8.88;;;;;;;;;;5031564;28;20041;-57
2022/06/27 04:04:05;;;;;;;13.23;8.25;;;;;;;;;;5028066;28;20053;-57
2022/06/27 04:06:32;;;;;;;12.15;8.98;;;;;;;;;;5032799;28;20128;-59
2022/06/27 04:08:58;;;;;;;15.48;9.63;;;;;;;;;;5028751;28;20051;-57
2022/06/27 04:11:24;;;;;;;11.52;8.75;;;;;;;;;;5034069;28;20037;-57
2022/06/27 04:13:50;;;;;;;17.88;9.25;;;;;;;;;;5032429;28;20479;-57
2022/06/27 04:16:17;;;;;;;13.32;9.13;;;;;;;;;;5027972;28;20770;-57
2022/06/27 04:18:43;;;;;;;14.98;10.80;;;;;;;;;;5015139;28;20033;-57
2022/06/27 04:21:09;;;;;;;13.27;9.90;;;;;;;;;;5028841;28;20045;-58
2022/06/27 04:23:35;;;;;;;16.23;9.93;;;;;;;;;;5032482;28;20046;-57
2022/06/27 04:26:01;;;;;;;13.45;9.52;;;;;;;;;;5029515;28;20045;-58
2022/06/27 04:28:27;;;;;;;22.70;9.95;;;;;;;;;;5027141;28;20145;-58
2022/06/27 04:30:54;;;;;;;10.88;8.70;;;;;;;;;;5014481;28;20560;-58
2022/06/27 04:33:20;;;;;;;11.98;7.70;;;;;;;;;;5027715;28;20121;-58
2022/06/27 04:35:46;;;;;;;12.05;8.30;;;;;;;;;;5031469;28;20123;-58
2022/06/27 04:38:13;;;;;;;12.75;8.25;;;;;;;;;;5025849;28;20045;-58
2022/06/27 04:40:39;;;;;;;17.45;8.57;;;;;;;;;;5009131;28;20046;-58
2022/06/27 04:43:07;;;;;;;12.25;7.95;;;;;;;;;;5026625;28;20116;-57
2022/06/27 04:45:33;;;;;;;10.52;7.95;;;;;;;;;;5026547;28;20054;-58
2022/06/27 04:48:00;;;;;;;10.98;6.85;;;;;;;;;;5026871;28;20041;-58
2022/06/27 04:50:26;;;;;;;7.68;6.55;;;;;;;;;;5026087;28;20116;-57
2022/06/27 04:52:55;;;;;;;10.98;6.32;;;;;;;;;;5025396;28;20045;-58
2022/06/27 04:55:22;;;;;;;9.50;6.35;;;;;;;;;;5026751;28;20837;-58
2022/06/27 04:57:49;;;;;;;9.00;6.22;;;;;;;;;;5026264;28;20069;-58
2022/06/27 05:00:16;;;;;;;10.57;6.60;;;;;;;;;;5026838;28;20041;-58
2022/06/27 05:02:42;;;;;;;9.82;6.13;;;;;;;;;;5026454;28;20043;-58
2022/06/27 05:05:09;;;;;;;12.32;7.20;;;;;;;;;;5026911;28;20084;-58
2022/06/27 05:07:35;;;;;;;10.75;7.47;;;;;;;;;;5026967;28;20118;-57
2022/06/27 05:10:02;;;;;;;8.77;6.60;;;;;;;;;;5026884;28;20037;-57
2022/06/27 05:12:28;;;;;;;11.77;6.50;;;;;;;;;;5028577;28;20485;-58
2022/06/27 05:14:55;;;;;;;9.50;6.68;;;;;;;;;;5009931;28;20076;-57
2022/06/27 05:17:22;;;;;;;8.10;5.88;;;;;;;;;;5025782;28;20064;-58
2022/06/27 05:19:48;;;;;;;8.10;6.38;;;;;;;;;;5025368;28;20090;-57
2022/06/27 05:22:14;;;;;;;9.05;6.20;;;;;;;;;;5026240;28;20049;-58
2022/06/27 05:24:41;;;;;;;7.78;5.60;;;;;;;;;;5027292;28;20041;-59
2022/06/27 05:27:09;;;;;;;13.43;5.70;;;;;;;;;;5027602;28;20120;-57
2022/06/27 05:29:35;;;;;;;6.63;4.50;;;;;;;;;;5026474;28;20041;-57
2022/06/27 05:32:01;;;;;;;6.95;4.93;;;;;;;;;;5026271;28;20513;-57
2022/06/27 05:34:27;;;;;;;5.40;4.10;;;;;;;;;;5025716;28;20536;-57
2022/06/27 05:36:54;;;;;;;5.38;3.60;;;;;;;;;;5025247;28;20038;-57
2022/06/27 05:39:20;;;;;;;5.80;3.25;;;;;;;;;;5025040;28;20072;-58
2022/06/27 05:41:46;;;;;;;4.50;3.03;;;;;;;;;;5026798;28;20068;-57
2022/06/27 05:44:14;;;;;;;3.63;2.90;;;;;;;;;;5008712;28;20037;-58
2022/06/27 05:46:41;;;;;;;5.03;3.03;;;;;;;;;;5026756;28;20124;-57
2022/06/27 05:49:08;;;;;;;5.75;2.42;;;;;;;;;;5009332;28;20087;-57
2022/06/27 05:51:36;;;;;;;2.97;1.80;;;;;;;;;;5025675;28;20053;-58
2022/06/27 05:54:02;;;;;;;4.82;2.45;;;;;;;;;;5024851;28;20187;-57
2022/06/27 05:56:30;;;;;;;6.38;2.40;;;;;;;;;;5025787;28;20092;-57
2022/06/27 05:58:57;;;;;;;9.63;2.42;;;;;;;;;;5007513;28;20056;-58
2022/06/27 06:01:25;;;;;;;4.22;2.33;;;;;;;;;;5024625;28;20240;-58
2022/06/27 06:03:53;;;;;;;2.75;1.90;;;;;;;;;;5025682;28;20111;-57
2022/06/27 06:06:19;;;;;;;3.50;2.08;;;;;;;;;;5024672;28;20057;-58
2022/06/27 06:08:46;;;;;;;3.60;2.08;;;;;;;;;;5025610;28;20042;-58
2022/06/27 06:11:13;;;;;;;2.28;1.67;;;;;;;;;;5024472;28;20670;-58
2022/06/27 06:13:40;;;;;;;5.57;1.80;;;;;;;;;;5031487;28;20124;-58
2022/06/27 06:16:06;;;;;;;3.40;1.52;;;;;;;;;;5026659;28;20048;-58
2022/06/27 06:18:33;;;;;;;3.65;1.75;;;;;;;;;;5031160;28;20056;-58
2022/06/27 06:20:59;;;;;;;2.95;1.80;;;;;;;;;;5022500;28;20048;-57
2022/06/27 06:23:25;;;;;;;4.15;2.15;;;;;;;;;;5028808;28;20099;-58
2022/06/27 06:25:52;;;;;;;3.63;2.17;;;;;;;;;;5028970;28;20111;-58
2022/06/27 06:28:18;;;;;;;2.63;1.73;;;;;;;;;;5025396;28;20034;-58
2022/06/27 06:30:45;;;;;;;3.90;2.00;;;;;;;;;;5030216;28;20190;-57
2022/06/27 06:33:11;;;;;;;2.42;1.70;;;;;;;;;;5026046;28;20041;-59
2022/06/27 06:35:37;;;;;;;5.45;2.15;;;;;;;;;;5031716;28;20047;-58
2022/06/27 06:38:04;;;;;;;3.33;2.03;;;;;;;;;;5025851;28;20506;-58
2022/06/27 06:40:32;;;;;;;3.20;2.08;;;;;;;;;;5026352;28;20047;-58
2022/06/27 06:43:00;;;;;;;3.13;2.15;;;;;;;;;;5027762;28;20046;-58
2022/06/27 06:45:26;;;;;;;2.70;2.05;;;;;;;;;;5025694;28;20065;-57
2022/06/27 06:47:54;;;;;;;3.47;2.00;;;;;;;;;;5030913;28;20044;-58
2022/06/27 06:50:20;;;;;;;3.72;2.13;;;;;;;;;;5026194;28;20048;-58
2022/06/27 06:52:49;;;;;;;5.43;2.00;;;;;;;;;;5030946;28;20039;-57
2022/06/27 06:55:16;;;;;;;6.20;2.08;;;;;;;;;;5026059;28;20487;-57
2022/06/27 06:57:43;;;;;;;4.47;2.40;;;;;;;;;;5027635;28;20055;-58
2022/06/27 07:00:09;;;;;;;9.82;2.35;;;;;;;;;;5026888;28;20045;-57
2022/06/27 07:02:36;;;;;;;3.53;2.70;;;;;;;;;;5025544;28;20048;-57
2022/06/27 07:05:04;;;;;;;3.03;2.40;;;;;;;;;;5026656;28;20051;-57
2022/06/27 07:07:33;;;;;;;5.25;2.70;;;;;;;;;;5024568;28;20499;-57
2022/06/27 07:09:59;;;;;;;3.97;2.78;;;;;;;;;;5027430;28;20120;-57
2022/06/27 07:12:26;;;;;;;4.68;2.70;;;;;;;;;;5027934;28;20076;-57
2022/06/27 07:14:54;;;;;;;5.70;2.72;;;;;;;;;;5025044;28;20046;-57
2022/06/27 07:17:24;;;;;;;4.20;2.70;;;;;;;;;;5028881;28;20087;-57
2022/06/27 07:19:52;;;;;;;7.70;3.17;;;;;;;;;;5024741;28;20491;-58
2022/06/27 07:22:19;;;;;;;3.92;2.55;;;;;;;;;;5028116;28;20057;-58
2022/06/27 07:24:48;;;;;;;5.47;2.70;;;;;;;;;;5028007;28;20128;-58
2022/06/27 07:27:15;;;;;;;;;;;;;;;;;;5010327;28;20111;-58
2022/06/27 07:29:42;;;;;;;7.53;3.00;;;;;;;;;;5024265;28;19948;-58
2022/06/27 07:32:08;;;;;;;5.05;2.88;;;;;;;;;;5029181;28;20098;-57
2022/06/27 07:34:35;;;;;;;6.63;3.13;;;;;;;;;;5024731;28;20098;-58
2022/06/27 07:37:01;;;;;;;4.93;2.88;;;;;;;;;;5027520;28;20449;-57
2022/06/27 07:39:27;;;;;;;11.63;3.15;;;;;;;;;;5026632;28;20468;-57
2022/06/27 07:41:54;;;;;;;6.75;3.00;;;;;;;;;;5028214;28;20491;-57
2022/06/27 07:44:22;;;;;;;3.63;2.42;;;;;;;;;;5028374;28;20073;-58
2022/06/27 07:46:48;;;;;;;6.63;3.10;;;;;;;;;;5024322;28;20525;-57
2022/06/27 07:49:15;;;;;;;4.65;2.90;;;;;;;;;;5028636;28;20843;-58
2022/06/27 07:51:41;;;;;;;5.28;3.05;;;;;;;;;;5024198;28;20033;-58
2022/06/27 07:54:10;;;;;;;4.05;2.90;;;;;;;;;;5026127;28;20188;-58
2022/06/27 07:56:37;;;;;;;4.30;2.90;;;;;;;;;;5026572;28;20037;-58
2022/06/27 07:59:06;;;;;;;5.90;3.05;;;;;;;;;;5028026;28;20038;-58
2022/06/27 08:01:33;;;;;;;4.70;2.85;;;;;;;;;;5027732;28;20738;-57
2022/06/27 08:03:59;;;;;;;4.32;2.95;;;;;;;;;;5026923;28;20503;-58
2022/06/27 08:06:27;;;;;;;6.25;2.90;;;;;;;;;;5025863;28;20555;-58
2022/06/27 08:08:55;;;;;;;5.43;3.15;;;;;;;;;;5027992;28;20036;-57
2022/06/27 08:11:23;;;;;;;4.70;3.13;;;;;;;;;;5009651;28;20041;-58
2022/06/27 08:13:50;;;;;;;3.85;3.08;;;;;;;;;;5025485;28;20073;-58
2022/06/27 08:16:18;;;;;;;4.90;2.92;;;;;;;;;;5026851;28;20039;-58
2022/06/27 08:18:47;;;;;;;4.20;2.95;;;;;;;;;;5026787;28;20045;-58
2022/06/27 08:21:14;;;;;;;4.10;2.28;;;;;;;;;;5029590;28;20128;-58
2022/06/27 08:23:40;;;;;;;4.30;2.78;;;;;;;;;;5030708;28;20570;-58
2022/06/27 08:26:08;;;;;;;3.90;2.65;;;;;;;;;;5031733;28;20049;-58
2022/06/27 08:28:35;;;;;;;4.47;2.83;;;;;;;;;;5030565;28;20399;-57
2022/06/27 08:31:02;;;;;;;5.45;2.45;;;;;;;;;;5010230;28;20046;-57
2022/06/27 08:33:30;;;;;;;4.30;2.60;;;;;;;;;;5030389;28;20057;-58
2022/06/27 08:35:57;;;;;;;4.03;2.35;;;;;;;;;;5028700;28;20045;-58
2022/06/27 08:38:24;;;;;;;4.07;2.20;;;;;;;;;;5031265;28;20137;-58
2022/06/27 08:40:53;;;;;;;3.70;2.20;;;;;;;;;;5028951;28;20045;-58
2022/06/27 08:43:19;;;;;;;2.75;1.92;;;;;;;;;;5030620;28;20493;-57
2022/06/27 08:45:47;;;;;;;3.67;2.20;;;;;;;;;;5030441;28;20534;-58
2022/06/27 08:48:14;;;;;;;;;;;;;;;;;;5031384;28;20061;-58
2022/06/27 08:50:42;;;;;;;4.50;2.03;;;;;;;;;;5031040;28;19933;-58
2022/06/27 08:53:10;;;;;;;3.88;2.47;;;;;;;;;;5026946;28;20337;-58
2022/06/27 08:55:36;;;;;;;3.40;2.25;;;;;;;;;;5030718;28;20044;-57
2022/06/27 08:58:06;;;;;;;4.88;2.70;;;;;;;;;;5030057;28;20072;-58
2022/06/27 09:00:34;;;;;;;4.20;2.55;;;;;;;;;;5026911;28;20100;-58
2022/06/27 09:03:00;;;;;;;4.30;2.50;;;;;;;;;;5030639;28;20459;-57
2022/06/27 09:05:27;;;;;;;3.83;2.67;;;;;;;;;;5026664;28;20132;-58
2022/06/27 09:07:55;;;;;;;4.05;2.58;;;;;;;;;;5030442;28;20491;-58
2022/06/27 09:10:24;;;;;;;4.97;2.60;;;;;;;;;;5027206;28;20124;-58
2022/06/27 09:12:55;;;;;;;3.28;2.65;;;;;;;;;;5012717;28;20049;-58
2022/06/27 09:15:23;;;;;;;4.78;2.42;;;;;;;;;;5028293;28;20049;-57
2022/06/27 09:18:00;;;;;;;5.35;2.33;;;;;;;;;;5027318;28;20111;-58
2022/06/27 09:20:46;;;;;;;4.47;2.58;;;;;;;;;;5030040;28;20114;-58
2022/06/27 09:23:27;;;;;;;3.35;2.60;;;;;;;;;;5026509;28;20077;-58
2022/06/27 09:26:01;;;;;;;11.45;2.80;;;;;;;;;;5026197;28;20038;-58
2022/06/27 09:28:39;;;;;;;4.45;3.13;;;;;;;;;;5025151;28;20033;-57
2022/06/27 09:31:09;;;;;;;5.95;2.63;;;;;;;;;;5027522;28;20063;-58
2022/06/27 09:33:37;;;;;;;2.95;2.25;;;;;;;;;;5027523;28;20066;-58
2022/06/27 09:36:15;;;;;;;7.32;2.20;;;;;;;;;;5032331;28;20045;-58
2022/06/27 09:38:41;;;;;;;;;;;;;;;;;;5028624;28;20048;-58
2022/06/27 09:41:09;;;;;;;9.40;2.92;;;;;;;;;;5029620;28;20146;-58
2022/06/27 09:43:39;;;;;;;5.72;2.50;;;;;;;;;;5028688;28;20046;-58
2022/06/27 09:46:05;;;;;;;2.90;1.92;;;;;;;;;;5013556;28;20053;-58
2022/06/27 09:48:32;;;;;;;4.63;2.15;;;;;;;;;;5028331;28;20521;-58
2022/06/27 09:51:01;;;;;;;3.00;2.03;;;;;;;;;;5024159;28;20087;-57
2022/06/27 09:53:27;;;;;;;3.92;2.03;;;;;;;;;;5028825;28;20687;-57
2022/06/27 09:55:54;;;;;;;4.32;2.00;;;;;;;;;;5027482;28;20083;-58
2022/06/27 09:58:20;;;;;;;2.20;1.58;;;;;;;;;;5029298;28;20045;-58
2022/06/27 10:00:48;;;;;;;2.05;1.65;;;;;;;;;;5028118;28;20041;-58
2022/06/27 10:03:15;;;;;;;2.90;1.63;;;;;;;;;;5025802;28;20116;-58
2022/06/27 10:05:43;;;;;;;4.28;1.50;;;;;;;;;;5027772;28;20507;-58
2022/06/27 10:08:10;;;;;;;3.95;1.08;;;;;;;;;;5027387;28;20041;-58
2022/06/27 10:10:56;;;;;;;2.40;1.10;;;;;;;;;;5029043;28;20048;-58
2022/06/27 10:13:22;;;;;;;2.33;1.00;;;;;;;;;;5029052;28;20077;-58
2022/06/27 10:15:49;;;;;;;2.05;1.30;;;;;;;;;;5029322;28;20095;-57
2022/06/27 10:18:16;;;;;;;2.38;1.00;;;;;;;;;;5023731;28;20052;-58
2022/06/27 10:20:47;;;;;;;2.15;1.10;;;;;;;;;;5029246;28;20449;-58
2022/06/27 10:23:14;;;;;;;2.97;1.38;;;;;;;;;;5027742;28;20048;-58
2022/06/27 10:25:41;;;;;;;4.28;1.30;;;;;;;;;;5026495;28;20431;-59
2022/06/27 10:28:08;;;;;;;3.13;1.33;;;;;;;;;;5010752;28;20045;-57
2022/06/27 10:30:38;;;;;;;3.15;1.27;;;;;;;;;;5026961;28;20045;-58
2022/06/27 10:33:19;;;;;;;2.03;1.58;;;;;;;;;;5011050;28;20041;-58
2022/06/27 10:35:55;;;;;;;3.05;1.50;;;;;;;;;;5027496;28;20067;-58
2022/06/27 10:38:22;;;;;;;2.30;1.50;;;;;;;;;;5028800;28;20038;-58
2022/06/27 10:40:50;;;;;;;2.90;1.50;;;;;;;;;;5028273;28;20521;-58
2022/06/27 10:43:35;;;;;;;4.13;1.50;;;;;;;;;;5029065;28;20050;-57
2022/06/27 10:46:01;;;;;;;4.82;1.70;;;;;;;;;;5011685;28;20510;-58
2022/06/27 10:48:34;;;;;;;2.05;1.60;;;;;;;;;;5024406;28;20124;-58
2022/06/27 10:51:19;;;;;;;4.22;1.55;;;;;;;;;;5026998;28;20053;-58
2022/06/27 10:53:46;;;;;;;2.60;1.58;;;;;;;;;;5024204;28;20049;-58
2022/06/27 10:56:30;;;;;;;5.72;1.50;;;;;;;;;;5023116;28;20076;-58
2022/06/27 10:58:57;;;;;;;2.08;1.60;;;;;;;;;;5021441;28;20517;-58
2022/06/27 11:01:23;;;;;;;4.18;1.73;;;;;;;;;;5020610;28;20034;-58
2022/06/27 11:03:50;;;;;;;3.90;1.92;;;;;;;;;;5022122;28;20101;-58
2022/06/27 11:06:16;;;;;;;4.13;1.85;;;;;;;;;;5021177;28;21459;-58
2022/06/27 11:08:44;;;;;;;3.38;2.05;;;;;;;;;;5022203;28;20033;-58
2022/06/27 11:11:17;;;;;;;3.90;2.30;;;;;;;;;;5017974;28;20084;-59
2022/06/27 11:13:45;;;;;;;3.50;2.42;;;;;;;;;;5018724;28;20038;-58
2022/06/27 11:16:19;;;;;;;3.92;2.33;;;;;;;;;;5024146;28;20048;-59
2022/06/27 11:18:48;;;;;;;6.60;2.17;;;;;;;;;;5024674;28;20034;-57
2022/06/27 11:21:16;;;;;;;4.10;2.60;;;;;;;;;;5023451;28;20045;-58
2022/06/27 11:23:53;;;;;;;5.05;2.70;;;;;;;;;;5024676;28;20048;-58
2022/06/27 11:26:21;;;;;;;4.13;2.45;;;;;;;;;;5024400;28;20041;-57
2022/06/27 11:34:17;;;;;;;4.78;2.42;;;;;;;;;;5022619;28;20045;-58
2022/06/27 11:36:43;;;;;;;5.32;2.50;;;;;;;;;;5023296;28;20388;-58
2022/06/27 11:39:09;;;;;;;5.22;2.85;;;;;;;;;;5025398;28;20033;-58
2022/06/27 11:41:38;;;;;;;3.67;2.65;;;;;;;;;;5024503;28;20115;-58
2022/06/27 11:44:04;;;;;;;;;;;;;;;;;;5007205;28;20038;-58
2022/06/27 11:46:31;;;;;;;4.18;3.03;;;;;;;;;;5024089;28;20020;-57
2022/06/27 11:48:59;;;;;;;4.80;3.25;;;;;;;;;;5023459;28;20041;-58
2022/06/27 11:51:28;;;;;;;5.80;3.17;;;;;;;;;;5023075;28;20057;-58
2022/06/27 11:53:56;;;;;;;5.05;3.03;;;;;;;;;;5027911;28;20111;-58
2022/06/27 11:56:26;;;;;;;5.43;3.65;;;;;;;;;;5028205;28;20100;-58
2022/06/27 11:58:52;;;;;;;4.85;4.00;;;;;;;;;;5009696;28;20045;-57
2022/06/27 12:01:20;;;;;;;5.45;3.70;;;;;;;;;;5027063;28;20049;-58
2022/06/27 12:04:05;;;;;;;4.45;3.65;;;;;;;;;;5006027;28;20042;-58
2022/06/27 12:06:31;;;;;;;6.43;3.42;;;;;;;;;;5004749;28;20679;-58
2022/06/27 12:09:00;;;;;;;5.60;3.97;;;;;;;;;;5007397;28;20065;-58
2022/06/27 12:11:29;;;;;;;4.85;3.72;;;;;;;;;;5007569;28;20503;-58
2022/06/27 12:14:01;;;;;;;8.60;4.45;;;;;;;;;;5005187;28;20176;-58
2022/06/27 12:16:28;;;;;;;6.85;4.38;;;;;;;;;;5006691;28;20526;-58
2022/06/27 12:18:54;;;;;;;4.95;3.58;;;;;;;;;;5007109;28;20029;-58
2022/06/27 12:21:22;;;;;;;4.82;3.80;;;;;;;;;;5006508;28;20038;-58
2022/06/27 12:23:48;;;;;;;;;;;;;;;;;;5007872;28;20049;-58
2022/06/27 12:26:15;;;;;;;7.47;4.47;;;;;;;;;;5006869;28;19925;-58
2022/06/27 12:28:42;;;;;;;6.03;4.30;;;;;;;;;;5004169;28;20038;-58
2022/06/27 12:31:08;;;;;;;5.38;3.92;;;;;;;;;;5007786;28;20058;-58
2022/06/27 12:33:34;;;;;;;7.05;4.60;;;;;;;;;;5006559;28;20038;-58
2022/06/27 12:36:01;;;;;;;9.13;4.75;;;;;;;;;;5006492;28;20072;-58
2022/06/27 12:38:27;;;;;;;7.70;5.22;;;;;;;;;;5006251;28;20038;-58
2022/06/27 12:41:11;;;;;;;7.03;4.50;;;;;;;;;;5007142;28;20495;-57
2022/06/27 12:43:45;;;;;;;8.07;4.40;;;;;;;;;;5005563;28;20133;-58
2022/06/27 12:46:12;;;;;;;5.85;4.30;;;;;;;;;;5006698;28;20046;-58
2022/06/27 12:48:39;;;;;;;6.70;4.70;;;;;;;;;;5005396;28;20046;-58
2022/06/27 12:51:06;;;;;;;6.07;4.72;;;;;;;;;;5004051;28;20120;-58
2022/06/27 12:53:33;;;;;;;6.75;4.90;;;;;;;;;;5006005;28;20041;-58
2022/06/27 12:56:01;;;;;;;7.07;4.50;;;;;;;;;;5006431;28;20054;-58
2022/06/27 12:58:27;;;;;;;5.88;4.35;;;;;;;;;;5006973;28;20073;-57
2022/06/27 13:00:53;;;;;;;5.72;4.55;;;;;;;;;;5006759;28;20096;-58
2022/06/27 13:03:20;;;;;;;7.80;5.35;;;;;;;;;;5006653;28;20038;-58
2022/06/27 13:05:46;;;;;;;6.50;5.20;;;;;;;;;;5008313;28;20132;-58
2022/06/27 13:08:12;;;;;;;8.85;5.15;;;;;;;;;;5026521;28;20045;-58
2022/06/27 13:10:39;;;;;;;7.15;5.20;;;;;;;;;;5026534;28;20409;-58
2022/06/27 13:13:05;;;;;;;11.23;4.68;;;;;;;;;;5023082;28;20111;-58
2022/06/27 13:15:34;;;;;;;7.03;5.00;;;;;;;;;;5026033;28;20049;-58
2022/06/27 13:18:01;;;;;;;8.52;4.97;;;;;;;;;;5022105;28;20140;-59
2022/06/27 13:20:27;;;;;;;6.63;4.75;;;;;;;;;;5024947;28;20127;-58
2022/06/27 13:22:53;;;;;;;7.45;4.78;;;;;;;;;;5023762;28;20046;-58
2022/06/27 13:25:20;;;;;;;10.65;5.63;;;;;;;;;;5024478;28;20080;-59
2022/06/27 13:27:46;;;;;;;8.48;5.10;;;;;;;;;;5026501;28;20085;-59
2022/06/27 13:30:13;;;;;;;9.00;5.40;;;;;;;;;;5025390;28;20041;-59
2022/06/27 13:32:40;;;;;;;8.43;4.72;;;;;;;;;;5026412;28;20434;-58
2022/06/27 13:35:06;;;;;;;7.55;4.60;;;;;;;;;;5025593;28;20534;-58
2022/06/27 13:37:33;;;;;;;7.68;5.05;;;;;;;;;;5025112;28;20037;-58
2022/06/27 13:39:59;;;;;;;6.22;4.80;;;;;;;;;;5026370;28;20075;-59
2022/06/27 13:42:25;;;;;;;6.07;4.70;;;;;;;;;;5025724;28;20041;-58
2022/06/27 13:44:53;;;;;;;6.00;4.90;;;;;;;;;;5024510;28;20120;-58
2022/06/27 13:47:19;;;;;;;9.75;4.75;;;;;;;;;;5025310;28;20045;-59
2022/06/27 13:49:47;;;;;;;7.10;5.00;;;;;;;;;;5026300;28;20094;-58
2022/06/27 13:52:14;;;;;;;8.30;5.25;;;;;;;;;;5024433;28;20491;-58
2022/06/27 13:54:40;;;;;;;6.82;4.95;;;;;;;;;;5025175;28;20517;-60
2022/06/27 13:57:07;;;;;;;7.32;5.78;;;;;;;;;;5025678;28;20102;-58
2022/06/27 13:59:33;;;;;;;8.55;5.38;;;;;;;;;;5025724;28;20573;-59
2022/06/27 14:02:00;;;;;;;7.80;5.53;;;;;;;;;;5025579;28;20836;-58
2022/06/27 14:04:26;;;;;;;9.35;5.72;;;;;;;;;;5025202;28;20057;-59
2022/06/27 14:09:37;;;;;;;9.35;5.53;;;;;;;;;;5024432;28;20096;-59
2022/06/27 14:12:03;;;;;;;7.90;5.15;;;;;;;;;;5025683;28;20107;-59
2022/06/27 14:14:30;;;;;;;9.88;5.32;;;;;;;;;;5028466;28;20048;-59
2022/06/27 14:16:56;;;;;;;7.10;5.50;;;;;;;;;;5027325;28;20445;-58
2022/06/27 14:19:22;;;;;;;7.30;5.50;;;;;;;;;;5028961;28;20541;-59
2022/06/27 14:21:49;;;;;;;9.38;5.38;;;;;;;;;;5028526;28;20257;-59
2022/06/27 14:24:15;;;;;;;11.43;5.70;;;;;;;;;;5021411;28;20037;-59
2022/06/27 14:26:42;;;;;;;7.65;5.35;;;;;;;;;;5027929;28;20037;-59
2022/06/27 14:29:08;;;;;;;8.02;5.18;;;;;;;;;;5027246;28;20042;-58
2022/06/27 14:31:34;;;;;;;8.48;5.25;;;;;;;;;;5027686;28;20034;-59
2022/06/27 14:34:01;;;;;;;7.13;5.43;;;;;;;;;;5027064;28;20124;-58
2022/06/27 14:36:27;;;;;;;8.80;5.70;;;;;;;;;;5027416;28;20037;-58
2022/06/27 14:38:53;;;;;;;11.48;6.30;;;;;;;;;;5027395;28;20034;-59
2022/06/27 14:41:19;;;;;;;8.05;5.88;;;;;;;;;;5027432;28;20088;-59
2022/06/27 14:43:46;;;;;;;11.00;6.35;;;;;;;;;;5026400;28;20191;-58
2022/06/27 14:46:12;;;;;;;9.65;5.88;;;;;;;;;;5021992;28;20029;-59
2022/06/27 14:48:38;;;;;;;11.43;5.82;;;;;;;;;;5024046;28;20044;-59
2022/06/27 14:51:04;;;;;;;10.95;6.15;;;;;;;;;;5023620;28;20049;-56
2022/06/27 14:53:31;;;;;;;11.95;5.60;;;;;;;;;;5024858;28;20411;-59
2022/06/27 14:55:57;;;;;;;9.15;6.10;;;;;;;;;;5024991;28;20057;-59
2022/06/27 14:58:23;;;;;;;12.05;6.95;;;;;;;;;;5021985;28;20034;-59